Friday, April 29, 2016, 8:03 AM EDT

KOXB, Ocean City Municipal Airport

Location: Berlin, MD, United States Lat: 38.317
Local Time: 8:03 AM EDT (12:03 GMT) Lon: -75.117
Time Zone: US/Eastern Elev: 13 ft

Show me the last for .
Show Decoded

2016-04-29 06:53 METAR KOXB 291053Z AUTO 04009KT 3SM BR OVC005 10/09 A3000 RMK AO2 SLP160
                 T01000094 TSNO =
2016-04-29 06:46 METAR KOXB 291046Z AUTO 04009KT 2 1/2SM BR OVC005 10/09 A3000 RMK AO2 CIG
                 003V008 T01000094 TSNO =
2016-04-29 06:34 METAR KOXB 291034Z AUTO 04007KT 3SM BR OVC005 10/09 A2999 RMK AO2 T01000094 TSNO
                 =
2016-04-29 06:03 METAR KOXB 291003Z AUTO 05009KT 2 1/2SM BR OVC005 10/09 A2998 RMK AO2 T01000094
                 TSNO =
2016-04-29 05:53 METAR KOXB 290953Z AUTO 05010KT 2 1/2SM BR OVC004 10/09 A2998 RMK AO2 SLP152
                 T01000094 TSNO =
2016-04-29 05:41 METAR KOXB 290941Z AUTO 04009KT 2 1/2SM BR OVC005 10/09 A2998 RMK AO2 T01000094
                 TSNO =
2016-04-29 05:33 METAR KOXB 290933Z AUTO 04010KT 3SM BR OVC005 10/09 A2998 RMK AO2 T01000094 TSNO
                 =
2016-04-29 05:22 METAR KOXB 290922Z AUTO 04009G16KT 2 1/2SM BR OVC005 10/09 A2998 RMK AO2 CIG
                 004V007 T01000094 TSNO =
2016-04-29 04:53 METAR KOXB 290853Z AUTO 05010KT 3SM BR OVC005 10/09 A2998 RMK AO2 CIG 004V009
                 SLP150 T01000094 55001 TSNO =
2016-04-29 04:12 METAR KOXB 290812Z AUTO 05010G17KT 3SM BR BKN005 OVC009 10/09 A2997 RMK AO2 CIG
                 004V008 T01000089 TSNO =
2016-04-29 03:53 METAR KOXB 290753Z AUTO 04011KT 3SM BR BKN004 OVC008 10/09 A2996 RMK AO2 SLP146
                 T01000089 TSNO =
2016-04-29 03:38 METAR KOXB 290738Z AUTO 04011KT 3SM BR OVC005 10/09 A2996 RMK AO2 CIG 004V009
                 T01000089 TSNO =
2016-04-29 02:53 METAR KOXB 290653Z AUTO 05008KT 2 1/2SM BR OVC006 10/09 A2998 RMK AO2 SLP150
                 T01000089 TSNO =
2016-04-29 02:51 METAR KOXB 290651Z AUTO 06008KT 2 1/2SM BR OVC006 10/09 A2998 RMK AO2 TSNO =
2016-04-29 01:53 METAR KOXB 290553Z AUTO 05007KT 8SM OVC005 10/09 A2999 RMK AO2 SLP154 60001
                 T01000089 10100 20094 55003 TSNO =
2016-04-29 00:53 METAR KOXB 290453Z AUTO 06009G18KT 8SM OVC005 10/09 A2997 RMK AO2 RAB02E30
                 SLP149 P0001 T01000089 401110094 TSNO =
2016-04-29 00:34 METAR KOXB 290434Z AUTO 05012G19KT 6SM BR OVC005 10/09 A2997 RMK AO2 RAB02E30
                 P0001 T01000089 TSNO =
2016-04-28 23:53 METAR KOXB 290353Z AUTO 05012G17KT 4SM BR OVC004 10/09 A2998 RMK AO2 SLP151
                 T01000089 TSNO =
2016-04-28 22:53 METAR KOXB 290253Z AUTO 04011G18KT 3SM BR OVC004 10/09 A3000 RMK AO2 SLP157
                 T01000094 50005 TSNO =
2016-04-28 21:53 METAR KOXB 290153Z AUTO 05008KT 2 1/2SM BR OVC004 10/09 A3000 RMK AO2 CIG
                 003V008 SLP159 T01000094 TSNO =
2016-04-28 21:28 METAR KOXB 290128Z AUTO 05008KT 2 1/2SM BR OVC004 10/09 A3001 RMK AO2 T01000094
                 TSNO =
2016-04-28 20:53 METAR KOXB 290053Z AUTO 05007KT 4SM BR OVC004 10/09 A2999 RMK AO2 CIG 003V008
                 SLP155 T01000094 TSNO =
2016-04-28 20:23 METAR KOXB 290023Z AUTO 05009KT 3SM BR OVC004 10/09 A2998 RMK AO2 CIG 003V007
                 T01000094 TSNO =
2016-04-28 19:53 METAR KOXB 282353Z AUTO 05009KT 2SM BR OVC004 10/09 A2998 RMK AO2 CIG 003V007
                 SLP152 60001 T01000094 10106 20094 51005 TSNO =
2016-04-28 19:05 METAR KOXB 282305Z AUTO 07010KT 1 1/4SM BR OVC004 10/09 A2997 RMK AO2 T01000094
                 TSNO =
2016-04-28 18:53 METAR KOXB 282253Z AUTO 06008KT 1SM BR OVC003 10/10 A2998 RMK AO2 CIG 003V008
                 SLP151 T01000100 TSNO =
2016-04-28 18:11 METAR KOXB 282211Z AUTO 07010KT 1SM BR OVC003 11/10 A2997 RMK AO2 T01060100 TSNO
                 =
2016-04-28 17:53 METAR KOXB 282153Z AUTO 06008KT 1SM BR OVC004 11/10 A2997 RMK AO2 SLP150
                 T01060100 TSNO =
2016-04-28 17:29 METAR KOXB 282129Z AUTO 06009KT 1 1/2SM BR OVC004 11/10 A2997 RMK AO2 T01060100
                 TSNO =
2016-04-28 17:03 METAR KOXB 282103Z AUTO 07009KT 2 1/2SM BR OVC004 11/10 A2997 RMK AO2 T01060100
                 TSNO =
2016-04-28 16:53 METAR KOXB 282053Z AUTO 07009KT 3SM BR OVC004 11/10 A2997 RMK AO2 SLP146 60001
                 T01060100 56011 TSNO =
2016-04-28 16:41 METAR KOXB 282041Z AUTO 07008KT 3SM BR OVC004 11/10 A2997 RMK AO2 T01060100 TSNO
                 =
2016-04-28 16:24 METAR KOXB 282024Z AUTO 06010KT 2SM BR OVC004 10/09 A2996 RMK AO2 T01000094 TSNO
                 =
2016-04-28 15:53 METAR KOXB 281953Z AUTO 06010KT 1 3/4SM BR OVC004 10/09 A2997 RMK AO2 RAE12
                 SLP147 P0000 T01000094 TSNO =
2016-04-28 15:29 METAR KOXB 281929Z AUTO 05008KT 1 3/4SM BR OVC004 10/09 A2998 RMK AO2 RAE12
                 P0000 T01000089 TSNO =
2016-04-28 15:00 METAR KOXB 281900Z AUTO 06010KT 1 3/4SM -RA BR OVC006 10/09 A2999 RMK AO2 P0000
                 T01000089 TSNO =
2016-04-28 14:53 METAR KOXB 281853Z AUTO 06008KT 2SM -RA BR OVC006 10/09 A2999 RMK AO2 RAE06B45
                 SLP154 P0001 T01000089 TSNO =
2016-04-28 13:53 METAR KOXB 281753Z AUTO 07010KT 7SM -RA OVC007 10/09 A3000 RMK AO2 CIG 006V011
                 SLP157 P0003 60018 T01000089 10111 20094 58005 TSNO =
2016-04-28 13:07 METAR KOXB 281707Z AUTO 07009KT 3SM -RA BR OVC008 11/09 A3001 RMK AO2 P0003
                 T01060094 TSNO =
2016-04-28 13:00 METAR KOXB 281700Z AUTO 08011KT 1 3/4SM RA BR OVC008 11/09 A3001 RMK AO2 P0002
                 T01060094 TSNO =
2016-04-28 12:53 METAR KOXB 281653Z AUTO 07010KT 3SM -RA BR OVC009 11/09 A3001 RMK AO2 RAE31B51
                 SLP162 P0003 T01060094 TSNO =
2016-04-28 12:29 METAR KOXB 281629Z AUTO 07012KT 4SM -RA BR OVC009 11/09 A3001 RMK AO2 CIG
                 006V012 P0001 T01060094 TSNO =
2016-04-28 12:19 METAR KOXB 281619Z AUTO 07009KT 2 1/2SM -RA BR OVC009 11/10 A3001 RMK AO2 CIG
                 006V011 P0001 T01060100 TSNO =
2016-04-28 12:07 METAR KOXB 281607Z AUTO 08008KT 2 1/2SM -RA BR OVC010 11/10 A3001 RMK AO2 CIG
                 006V012 P0001 T01060100 TSNO =
2016-04-28 11:53 METAR KOXB 281553Z AUTO 06010KT 4SM -RA BR OVC010 11/09 A3002 RMK AO2
                 RAB24E37B53 CIG 008V012 SLP164 P0000 T01060094 TSNO =
2016-04-28 11:00 METAR KOXB 281500Z AUTO 07008KT 6SM BR BKN011 OVC020 11/09 A3002 RMK AO2 CIG
                 009V012 T01110094 TSNO =
2016-04-28 10:53 METAR KOXB 281453Z AUTO 06007KT 6SM BR SCT011 OVC020 11/09 A3001 RMK AO2 RAE42
                 SLP162 P0001 60012 T01110094 53005 TSNO =
2016-04-28 10:31 METAR KOXB 281431Z AUTO 07008KT 7SM -RA BKN024 BKN043 OVC050 11/09 A3000 RMK AO2
                 P0001 T01110094 TSNO =
2016-04-28 09:53 METAR KOXB 281353Z AUTO 07009KT 10SM -RA OVC045 11/09 A2999 RMK AO2 SLP155 P0005
                 T01060094 TSNO =
2016-04-28 08:53 METAR KOXB 281253Z AUTO 05005KT 6SM -RA BR FEW026 SCT038 OVC047 11/09 A3001 RMK
                 AO2 SLP162 P0006 T01060089 TSNO =

Support USWX by starting your Amazon purchase here.